Time;durP1;ratioP1;P1;durP2;ratioP2;P2;SDS_P1;SDS_P2;PMS_P1;PMS_P2;Temp;Humidity;BMP_temperature;BMP_pressure;BME280_temperature;BME280_humidity;BME280_pressure;Samples;Min_cycle;Max_cycle;Signal;HPM_P1;HPM_P2
2021/04/29 01:43:13;;;;;;;30.90;17.13;;;;;;;10.55;52.39;100053.72;5062568;28;20508;-70
2021/04/29 01:45:41;;;;;;;37.15;15.82;;;;;;;10.52;53.18;100056.66;5068729;28;20080;-71
2021/04/29 01:48:09;;;;;;;31.42;14.93;;;;;;;10.47;52.78;100049.28;5051716;28;20110;-70
2021/04/29 01:50:36;;;;;;;30.67;17.10;;;;;;;10.39;53.18;100044.84;5061517;28;20133;-70
2021/04/29 01:53:04;;;;;;;35.47;17.23;;;;;;;10.39;53.60;100052.72;5054898;28;20079;-70
2021/04/29 01:55:32;;;;;;;38.35;17.60;;;;;;;10.34;53.66;100055.00;5065738;28;20053;-70
2021/04/29 01:57:58;;;;;;;37.33;17.60;;;;;;;10.32;54.07;100059.59;5058120;28;21262;-70
2021/04/29 02:00:24;;;;;;;31.65;16.25;;;;;;;10.31;53.36;100057.97;5044087;28;20155;-70
2021/04/29 02:02:51;;;;;;;36.63;17.00;;;;;;;10.34;54.16;100068.13;5057388;28;20056;-70
2021/04/29 02:05:17;;;;;;;35.47;17.33;;;;;;;10.22;54.14;100064.97;5041413;28;20059;-70
2021/04/29 02:07:43;;;;;;;32.75;17.75;;;;;;;10.25;54.44;100069.06;5063777;28;20512;-70
2021/04/29 02:10:10;;;;;;;35.72;17.00;;;;;;;10.20;54.76;100074.78;5058415;28;20076;-70
2021/04/29 02:12:45;;;;;;;31.95;16.85;;;;;;;10.23;54.67;100078.88;5062674;28;20060;-70
2021/04/29 02:15:12;;;;;;;33.20;17.95;;;;;;;10.19;54.26;100082.81;5054203;28;20547;-70
2021/04/29 02:17:55;;;;;;;38.28;19.27;;;;;;;10.17;55.11;100076.91;5059560;28;20148;-70
2021/04/29 02:20:23;;;;;;;35.53;18.05;;;;;;;10.18;54.97;100076.75;5066418;28;20522;-70
2021/04/29 02:22:50;;;;;;;32.60;16.77;;;;;;;10.14;55.14;100067.59;5062021;28;20052;-70
2021/04/29 02:25:23;;;;;;;37.78;18.73;;;;;;;10.18;54.78;100073.31;5064455;28;20078;-70
2021/04/29 02:27:50;;;;;;;31.35;18.35;;;;;;;10.14;55.23;100064.16;5052953;28;20076;-70
2021/04/29 02:30:17;;;;;;;35.15;18.38;;;;;;;10.16;54.92;100065.63;5061994;28;20107;-70
2021/04/29 02:32:43;;;;;;;39.80;19.95;;;;;;;10.16;55.52;100067.41;5055129;28;20064;-71
2021/04/29 02:35:12;;;;;;;34.72;17.83;;;;;;;10.13;55.48;100076.41;5064247;28;20472;-70
2021/04/29 02:37:39;;;;;;;38.92;20.08;;;;;;;10.07;55.67;100063.97;5056863;28;20151;-70
2021/04/29 02:40:08;;;;;;;43.03;19.73;;;;;;;10.11;55.63;100073.13;5061399;28;20060;-70
2021/04/29 02:42:34;;;;;;;38.45;19.10;;;;;;;10.08;56.56;100063.81;5057646;28;20304;-70
2021/04/29 02:45:01;;;;;;;36.17;18.33;;;;;;;10.13;55.84;100055.44;5042098;28;20056;-71
2021/04/29 02:47:27;;;;;;;37.90;19.92;;;;;;;10.12;56.27;100050.38;5061786;28;20061;-71
2021/04/29 02:49:54;;;;;;;39.33;20.80;;;;;;;10.18;55.77;100050.53;5040622;28;20571;-70
2021/04/29 02:52:20;;;;;;;41.42;19.25;;;;;;;10.20;56.00;100042.53;5061599;28;20144;-70
2021/04/29 02:54:46;;;;;;;38.70;18.65;;;;;;;10.18;56.41;100045.31;5060719;28;20048;-70
2021/04/29 02:57:22;;;;;;;35.50;19.05;;;;;;;10.19;56.13;100035.63;5059174;28;20079;-70
2021/04/29 02:59:49;;;;;;;46.75;19.90;;;;;;;10.23;56.18;100042.19;5063378;28;20053;-70
2021/04/29 03:02:16;;;;;;;41.28;20.90;;;;;;;10.23;56.15;100040.41;5038090;28;20152;-69
2021/04/29 03:04:43;;;;;;;40.30;20.30;;;;;;;10.11;56.71;100025.97;5063570;28;20076;-69
2021/04/29 03:07:09;;;;;;;41.60;21.35;;;;;;;10.22;56.78;100038.75;5055354;28;20479;-69
2021/04/29 03:09:36;;;;;;;35.65;20.15;;;;;;;10.25;56.71;100041.06;5057394;28;20144;-69
2021/04/29 03:12:03;;;;;;;38.70;20.27;;;;;;;10.21;57.25;100046.78;5057262;28;20056;-68
2021/04/29 03:14:29;;;;;;;47.10;21.17;;;;;;;10.14;57.05;100048.41;5044921;28;20048;-69
2021/04/29 03:16:55;;;;;;;47.05;22.27;;;;;;;10.12;56.96;100035.47;5061125;28;20106;-69
2021/04/29 03:19:22;;;;;;;34.10;19.88;;;;;;;10.15;56.27;100045.63;5056389;28;20053;-69
2021/04/29 03:21:48;;;;;;;38.38;19.98;;;;;;;10.13;56.65;100042.34;5058888;28;20503;-69
2021/04/29 03:24:15;;;;;;;40.60;20.67;;;;;;;10.10;56.90;100056.59;5055598;28;20083;-69
2021/04/29 03:26:41;;;;;;;36.33;20.15;;;;;;;10.08;56.86;100053.31;5059792;28;20052;-69
2021/04/29 03:29:06;;;;;;;43.45;20.52;;;;;;;10.12;57.35;100061.69;5057046;28;20054;-69
2021/04/29 03:31:32;;;;;;;37.50;19.98;;;;;;;10.12;57.20;100061.69;5060362;28;20048;-69
2021/04/29 03:33:58;;;;;;;38.22;19.80;;;;;;;10.08;57.52;100065.59;5062085;28;20591;-69
2021/04/29 03:36:24;;;;;;;41.95;22.45;;;;;;;9.99;57.72;100062.13;5053578;28;20135;-69
2021/04/29 03:38:52;;;;;;;40.67;21.00;;;;;;;9.92;57.84;100070.81;5062460;28;20052;-70
2021/04/29 03:41:18;;;;;;;39.47;20.20;;;;;;;9.96;57.66;100079.97;5059907;28;20092;-69
2021/04/29 03:43:44;;;;;;;38.20;20.73;;;;;;;9.93;57.97;100069.84;5068093;28;20048;-69
2021/04/29 03:46:10;;;;;;;38.10;19.83;;;;;;;9.90;57.93;100076.22;5065908;28;20495;-68
2021/04/29 03:48:36;;;;;;;43.75;20.90;;;;;;;9.85;58.17;100081.91;5062059;28;20078;-68
2021/04/29 03:51:02;;;;;;;42.80;22.35;;;;;;;9.79;58.34;100079.13;5065392;28;20062;-69
2021/04/29 03:53:28;;;;;;;42.40;21.60;;;;;;;9.87;57.86;100076.53;5043368;28;20056;-68
2021/04/29 03:55:54;;;;;;;42.78;21.38;;;;;;;9.86;58.36;100074.91;5066919;28;20140;-68
2021/04/29 03:58:21;;;;;;;37.55;19.40;;;;;;;9.86;57.84;100069.66;5061319;28;20159;-69
2021/04/29 04:00:47;;;;;;;38.70;21.55;;;;;;;9.87;58.80;100064.25;5068717;28;20157;-69
2021/04/29 04:03:13;;;;;;;44.35;22.55;;;;;;;9.87;59.35;100068.66;5039651;28;20531;-69
2021/04/29 04:05:38;;;;;;;46.10;21.60;;;;;;;9.85;60.66;100075.88;5044648;28;20085;-69
2021/04/29 04:08:05;;;;;;;49.40;24.17;;;;;;;9.86;62.86;100073.09;5063434;28;20130;-68
2021/04/29 04:10:31;;;;;;;45.33;23.27;;;;;;;9.88;63.26;100081.63;5058869;28;20053;-69
2021/04/29 04:12:57;;;;;;;43.10;22.25;;;;;;;9.91;63.51;100080.47;5065828;28;20055;-69
2021/04/29 04:15:23;;;;;;;42.33;22.35;;;;;;;9.84;62.63;100082.06;5060813;28;20103;-69
2021/04/29 04:17:49;;;;;;;43.88;23.88;;;;;;;9.84;63.87;100072.44;5059874;28;20049;-69
2021/04/29 04:20:19;;;;;;;46.28;24.30;;;;;;;9.87;65.26;100053.75;5061060;28;21167;-69
2021/04/29 04:22:46;;;;;;;45.20;22.52;;;;;;;9.93;65.36;100054.94;5063696;28;20048;-69
2021/04/29 04:25:12;;;;;;;41.05;22.75;;;;;;;9.89;65.71;100033.47;5065729;28;20048;-69
2021/04/29 04:27:38;;;;;;;49.25;22.55;;;;;;;9.89;65.95;100019.56;5056982;28;20049;-69
2021/04/29 04:30:06;;;;;;;47.72;23.58;;;;;;;9.76;66.44;100000.88;5063395;28;20135;-69
2021/04/29 04:32:32;;;;;;;53.17;25.35;;;;;;;9.67;68.12;99989.56;5054615;28;20664;-69
2021/04/29 04:35:00;;;;;;;52.92;25.00;;;;;;;9.64;69.43;99989.88;5050033;28;20060;-69
2021/04/29 04:37:26;;;;;;;48.60;23.75;;;;;;;9.60;68.69;99980.72;5059955;28;20075;-69
2021/04/29 04:39:52;;;;;;;46.53;23.00;;;;;;;9.53;68.64;99993.63;5066641;28;20080;-69
2021/04/29 04:42:18;;;;;;;50.75;25.63;;;;;;;9.40;68.34;100003.72;5067065;28;20825;-69
2021/04/29 04:44:44;;;;;;;49.25;24.67;;;;;;;9.34;69.26;100033.16;5060534;28;20114;-69
2021/04/29 04:47:10;;;;;;;46.47;24.77;;;;;;;9.17;67.74;100051.38;5064346;28;20053;-70
2021/04/29 04:49:38;;;;;;;51.75;26.25;;;;;;;8.88;68.29;100072.66;5031044;28;20056;-69
2021/04/29 04:52:04;;;;;;;52.28;24.95;;;;;;;8.84;69.31;100071.31;5066448;28;20056;-69
2021/04/29 04:54:30;;;;;;;45.97;23.08;;;;;;;8.80;70.49;100069.97;5056338;28;20561;-69
2021/04/29 04:56:57;;;;;;;50.80;25.15;;;;;;;8.85;70.68;100078.19;5063027;28;20053;-69
2021/04/29 04:59:23;;;;;;;45.80;24.15;;;;;;;8.74;69.80;100097.53;5062766;28;20083;-70
2021/04/29 05:01:49;;;;;;;46.90;25.80;;;;;;;8.61;69.91;100108.41;5041162;28;20180;-69
2021/04/29 05:04:15;;;;;;;49.83;24.85;;;;;;;8.62;70.55;100104.81;5065970;28;20052;-69
2021/04/29 05:06:42;;;;;;;49.97;25.38;;;;;;;8.55;71.58;100118.66;5054378;28;20076;-69
2021/04/29 05:09:07;;;;;;;51.40;25.70;;;;;;;8.49;71.54;100126.13;5063260;28;20055;-69
2021/04/29 05:11:33;;;;;;;50.33;26.10;;;;;;;8.46;71.99;100126.41;5062765;28;20102;-70
2021/04/29 05:14:00;;;;;;;50.05;26.20;;;;;;;8.51;72.35;100112.91;5061797;28;20118;-69
2021/04/29 05:16:26;;;;;;;51.13;25.58;;;;;;;8.57;72.00;100114.91;5066224;28;20052;-69
2021/04/29 05:18:52;;;;;;;52.90;27.88;;;;;;;8.67;72.62;100120.06;5060494;28;20048;-69
2021/04/29 05:21:18;;;;;;;47.70;26.65;;;;;;;8.62;72.08;100120.50;5058140;28;20072;-69
2021/04/29 05:23:46;;;;;;;62.30;30.60;;;;;;;8.71;72.84;100113.56;5024657;28;20052;-69
2021/04/29 05:26:13;;;;;;;56.70;29.83;;;;;;;8.71;70.96;100114.38;5060257;28;20192;-70
2021/04/29 05:28:39;;;;;;;57.25;29.25;;;;;;;8.77;72.31;100123.41;5053681;28;20052;-69
2021/04/29 05:31:13;;;;;;;61.53;28.38;;;;;;;8.86;72.56;100129.50;5061111;28;20059;-69
2021/04/29 05:33:39;;;;;;;52.58;27.92;;;;;;;8.87;72.15;100120.69;5046930;28;20052;-70
2021/04/29 05:36:05;;;;;;;60.92;30.33;;;;;;;8.94;72.70;100115.66;5055072;28;20044;-70
2021/04/29 05:38:31;;;;;;;57.15;29.42;;;;;;;8.97;71.52;100112.75;5056680;28;20078;-70
2021/04/29 05:40:57;;;;;;;59.65;31.10;;;;;;;9.01;72.48;100107.06;5039157;28;20060;-69
2021/04/29 05:43:23;;;;;;;64.55;30.55;;;;;;;9.10;72.27;100118.41;5037266;28;20057;-69
2021/04/29 05:45:49;;;;;;;56.65;29.42;;;;;;;9.12;72.00;100111.22;5045498;28;20060;-69
2021/04/29 05:48:16;;;;;;;64.93;31.55;;;;;;;9.16;72.09;100104.72;5058719;28;20052;-69
2021/04/29 05:50:42;;;;;;;60.47;31.48;;;;;;;9.19;71.67;100103.56;5057480;28;20700;-69
2021/04/29 05:53:08;;;;;;;52.90;29.73;;;;;;;9.29;71.44;100096.41;5058224;28;20063;-69
2021/04/29 05:55:34;;;;;;;57.15;29.90;;;;;;;9.33;71.85;100113.47;5061650;28;20056;-69
2021/04/29 05:58:00;;;;;;;64.03;31.38;;;;;;;9.37;72.05;100106.97;5018720;28;20113;-69
2021/04/29 06:00:27;;;;;;;64.88;30.40;;;;;;;9.38;72.20;100110.38;5062360;28;20052;-69
2021/04/29 06:02:55;;;;;;;58.28;30.50;;;;;;;9.35;71.34;100113.31;5053739;28;20052;-69
2021/04/29 06:05:22;;;;;;;59.30;31.15;;;;;;;9.34;71.24;100109.88;5036415;28;20419;-70
2021/04/29 06:07:56;;;;;;;58.67;30.15;;;;;;;9.34;70.99;100120.34;5064669;28;20452;-69
2021/04/29 06:10:23;;;;;;;57.08;30.65;;;;;;;9.33;70.66;100116.09;5057498;28;20439;-69
2021/04/29 06:12:49;;;;;;;56.65;30.38;;;;;;;9.39;71.73;100114.63;5056232;28;20079;-69
2021/04/29 06:15:16;;;;;;;67.90;33.28;;;;;;;9.47;71.97;100115.50;5036529;28;20143;-69
2021/04/29 06:17:42;;;;;;;63.50;31.40;;;;;;;9.49;71.61;100116.16;5041922;28;20624;-69
2021/04/29 06:20:09;;;;;;;58.50;31.52;;;;;;;9.48;71.05;100114.50;5053483;28;20056;-69
2021/04/29 06:22:35;;;;;;;62.10;32.40;;;;;;;9.56;71.72;100118.16;5062298;28;20084;-69
2021/04/29 06:25:02;;;;;;;62.67;32.03;;;;;;;9.62;71.39;100113.09;5065072;28;20049;-69
2021/04/29 06:27:28;;;;;;;58.35;31.67;;;;;;;9.67;70.72;100121.31;5048047;28;20083;-69
2021/04/29 06:29:54;;;;;;;60.95;30.65;;;;;;;9.67;71.06;100121.31;5064919;28;20056;-70
2021/04/29 06:32:20;;;;;;;59.83;30.50;;;;;;;9.70;70.76;100126.25;5052777;28;20056;-69
2021/04/29 06:34:47;;;;;;;61.28;33.30;;;;;;;9.75;71.21;100123.16;5059903;28;20941;-69
2021/04/29 06:37:13;;;;;;;54.10;30.42;;;;;;;9.80;70.90;100127.91;5044484;28;20165;-69
2021/04/29 06:39:42;;;;;;;54.92;29.67;;;;;;;9.88;70.87;100128.75;5057877;28;20102;-69
2021/04/29 06:42:09;;;;;;;58.50;30.30;;;;;;;9.93;70.64;100127.47;5064217;28;20106;-69
2021/04/29 06:44:35;;;;;;;58.38;30.33;;;;;;;10.03;71.47;100136.00;5039246;28;20078;-69
2021/04/29 06:47:01;;;;;;;55.95;29.35;;;;;;;10.03;70.69;100128.16;5060245;28;20067;-70
2021/04/29 06:49:28;;;;;;;64.70;32.25;;;;;;;10.07;70.24;100127.69;5055132;28;20449;-69
2021/04/29 06:51:54;;;;;;;60.15;31.33;;;;;;;10.08;70.49;100125.88;5063976;28;20067;-69
2021/04/29 06:54:21;;;;;;;53.42;28.90;;;;;;;10.14;70.52;100127.03;5062693;28;20048;-69
2021/04/29 06:56:47;;;;;;;57.80;30.55;;;;;;;10.18;70.56;100131.78;5058253;28;20049;-69
2021/04/29 06:59:13;;;;;;;56.83;29.35;;;;;;;10.15;70.73;100128.66;5043006;28;20105;-70
2021/04/29 07:01:39;;;;;;;57.17;30.65;;;;;;;10.15;70.16;100142.59;5055151;28;20067;-70
2021/04/29 07:04:06;;;;;;;51.70;28.50;;;;;;;10.18;70.20;100137.03;5044672;28;20052;-70
2021/04/29 07:06:32;;;;;;;47.63;28.58;;;;;;;10.23;70.43;100141.78;5058696;28;20045;-70
2021/04/29 07:08:58;;;;;;;55.25;28.98;;;;;;;10.26;70.34;100150.16;5063533;28;20056;-70
2021/04/29 07:11:25;;;;;;;51.78;29.20;;;;;;;10.36;70.18;100149.22;5061491;28;20063;-71
2021/04/29 07:13:51;;;;;;;54.20;27.73;;;;;;;10.32;69.74;100155.78;5061111;28;20484;-70
2021/04/29 07:16:18;;;;;;;53.38;27.45;;;;;;;10.37;69.74;100156.09;5060830;28;20049;-70
2021/04/29 07:18:44;;;;;;;53.55;28.92;;;;;;;10.38;69.93;100155.13;5039190;28;20048;-70
2021/04/29 07:21:10;;;;;;;47.72;29.35;;;;;;;10.40;70.13;100167.09;5045828;28;20106;-71
2021/04/29 07:23:36;;;;;;;52.97;28.40;;;;;;;10.35;69.65;100166.75;5055584;28;20049;-71
2021/04/29 07:26:03;;;;;;;48.78;27.30;;;;;;;10.40;69.65;100168.91;5061009;28;20052;-70
2021/04/29 07:28:29;;;;;;;47.95;29.30;;;;;;;10.40;70.00;100166.28;5057492;28;20161;-70
2021/04/29 07:30:55;;;;;;;49.42;28.88;;;;;;;10.54;70.52;100173.50;5057402;28;20484;-70
2021/04/29 07:33:21;;;;;;;52.55;29.67;;;;;;;10.59;70.66;100173.84;5061151;28;20056;-71
2021/04/29 07:35:48;;;;;;;44.78;27.05;;;;;;;10.66;70.20;100174.00;5058959;28;20063;-71
2021/04/29 07:38:15;;;;;;;47.35;28.10;;;;;;;10.62;70.16;100170.91;5045284;28;20080;-70
2021/04/29 07:40:41;;;;;;;46.17;27.35;;;;;;;10.66;69.68;100179.25;5036462;28;20052;-70
2021/04/29 07:43:08;;;;;;;41.60;26.08;;;;;;;10.61;69.65;100184.19;5050294;28;20462;-70
2021/04/29 07:45:34;;;;;;;43.88;26.38;;;;;;;10.69;69.29;100179.75;5044518;28;20051;-70
2021/04/29 07:48:00;;;;;;;42.70;28.17;;;;;;;10.69;69.35;100179.75;5065935;28;20059;-72
2021/04/29 07:50:27;;;;;;;42.78;25.50;;;;;;;10.77;69.50;100184.19;5063049;28;20162;-72
2021/04/29 07:52:56;;;;;;;43.25;26.80;;;;;;;10.81;69.23;100182.06;5039437;28;20488;-70
2021/04/29 07:55:22;;;;;;;41.38;27.08;;;;;;;10.86;69.49;100183.22;5058324;28;20044;-71
2021/04/29 07:57:48;;;;;;;45.90;28.35;;;;;;;10.92;69.23;100188.75;5054628;28;20048;-71
2021/04/29 08:00:14;;;;;;;42.42;26.25;;;;;;;10.80;68.42;100181.25;5062381;28;20052;-72
2021/04/29 08:02:41;;;;;;;40.95;25.05;;;;;;;10.76;68.50;100192.22;5056353;28;20545;-71
2021/04/29 08:05:09;;;;;;;42.53;25.77;;;;;;;10.69;68.84;100189.44;5063474;28;20106;-71
2021/04/29 08:07:35;;;;;;;39.25;25.17;;;;;;;10.57;68.63;100188.91;5061428;28;20044;-71
2021/04/29 08:10:04;;;;;;;38.35;25.27;;;;;;;10.59;69.08;100186.94;5056574;28;20055;-70
2021/04/29 08:12:30;;;;;;;40.92;26.80;;;;;;;10.55;69.22;100192.69;5064348;28;20049;-70
2021/04/29 08:14:59;;;;;;;41.25;25.77;;;;;;;10.44;69.35;100199.06;5057373;28;20164;-71
2021/04/29 08:17:28;;;;;;;38.60;25.40;;;;;;;10.43;69.54;100203.47;5062546;28;20048;-71
2021/04/29 08:19:55;;;;;;;35.45;24.70;;;;;;;10.38;69.41;100203.13;5025462;28;20078;-70
2021/04/29 08:22:22;;;;;;;39.70;26.40;;;;;;;10.41;69.97;100208.06;5061576;28;20121;-71
2021/04/29 08:24:50;;;;;;;40.70;26.65;;;;;;;10.44;70.30;100202.47;5043221;28;20389;-70
2021/04/29 08:27:17;;;;;;;42.40;26.95;;;;;;;10.54;70.03;100202.34;5060783;28;20044;-71
2021/04/29 08:29:43;;;;;;;36.50;27.25;;;;;;;10.62;70.17;100204.16;5049561;28;20102;-71
2021/04/29 08:32:09;;;;;;;40.50;25.85;;;;;;;10.72;70.35;100199.56;5061222;28;20056;-71
2021/04/29 08:34:35;;;;;;;39.30;26.33;;;;;;;10.70;69.34;100206.78;5049574;28;20430;-71
2021/04/29 08:37:01;;;;;;;38.58;26.48;;;;;;;10.76;69.44;100208.78;5040862;28;20064;-71
2021/04/29 08:39:28;;;;;;;41.65;27.08;;;;;;;10.78;68.86;100217.31;5062784;28;20121;-71
2021/04/29 08:41:54;;;;;;;40.35;25.73;;;;;;;10.71;68.56;100220.75;5066832;28;20899;-71
2021/04/29 08:44:20;;;;;;;42.08;25.88;;;;;;;10.76;69.34;100216.66;5059202;28;20048;-71
2021/04/29 08:46:47;;;;;;;42.20;26.55;;;;;;;10.79;69.00;100220.75;5066988;28;20052;-71
2021/04/29 08:49:15;;;;;;;41.85;26.48;;;;;;;10.80;69.53;100219.75;5059771;28;20056;-70
2021/04/29 08:51:42;;;;;;;39.75;26.58;;;;;;;10.78;69.18;100227.81;5062044;28;20131;-71
2021/04/29 08:54:08;;;;;;;38.40;25.08;;;;;;;10.75;69.46;100222.06;5057105;28;20059;-71
2021/04/29 08:56:34;;;;;;;37.58;25.73;;;;;;;10.79;69.43;100224.19;5065162;28;20048;-70
2021/04/29 08:59:01;;;;;;;39.30;24.83;;;;;;;10.80;68.92;100231.09;5050894;28;20068;-70
2021/04/29 09:01:39;;;;;;;40.50;26.63;;;;;;;10.83;69.09;100225.50;5041896;28;20059;-71
2021/04/29 09:04:24;;;;;;;38.88;24.38;;;;;;;10.88;69.54;100231.09;5050150;28;20514;-71
2021/04/29 09:06:50;;;;;;;35.50;24.88;;;;;;;10.74;68.51;100216.00;5042655;28;20049;-70
2021/04/29 09:09:18;;;;;;;41.80;27.67;;;;;;;10.81;69.27;100227.47;5066257;28;20126;-70
2021/04/29 09:11:53;;;;;;;37.53;25.40;;;;;;;10.77;69.54;100228.78;5058295;28;20365;-71
2021/04/29 09:14:37;;;;;;;41.97;25.02;;;;;;;10.70;69.53;100227.78;5056943;28;20051;-71
2021/04/29 09:17:04;;;;;;;38.60;25.45;;;;;;;10.77;69.32;100234.03;5049995;28;20083;-72
2021/04/29 09:19:35;;;;;;;34.50;23.13;;;;;;;10.79;68.98;100236.50;5044431;28;20048;-71
2021/04/29 09:22:04;;;;;;;34.85;24.50;;;;;;;10.87;69.11;100239.94;5061112;28;20059;-69
2021/04/29 09:24:38;;;;;;;38.30;24.23;;;;;;;10.75;69.22;100240.44;5059790;28;20076;-69
2021/04/29 09:27:08;;;;;;;39.55;25.25;;;;;;;10.62;69.50;100231.22;5069504;28;20053;-69
2021/04/29 09:29:34;;;;;;;37.05;24.63;;;;;;;10.60;69.76;100248.09;5059257;28;20052;-70
2021/04/29 09:32:01;;;;;;;36.55;23.27;;;;;;;10.65;70.04;100249.25;5065133;28;20044;-70
2021/04/29 09:34:39;;;;;;;34.60;25.10;;;;;;;10.75;70.84;100245.66;5053620;28;20142;-70
2021/04/29 09:37:05;;;;;;;39.45;26.52;;;;;;;10.84;70.68;100256.00;5060448;28;20064;-70
2021/04/29 09:39:51;;;;;;;36.72;24.70;;;;;;;10.88;69.81;100253.91;5062536;28;20043;-71
2021/04/29 09:42:36;;;;;;;35.30;23.50;;;;;;;10.85;69.00;100257.63;5064447;28;20055;-70
2021/04/29 09:45:15;;;;;;;37.45;23.40;;;;;;;10.86;69.33;100258.47;5062347;28;20048;-69
2021/04/29 09:47:41;;;;;;;;;;;;;;;10.89;69.34;100255.53;5038229;28;20467;-69
2021/04/29 09:50:08;;;;;;;35.78;22.48;;;;;;;10.91;68.31;100263.22;5062703;28;19945;-71
2021/04/29 09:52:34;;;;;;;36.05;23.73;;;;;;;10.84;68.87;100258.63;5058052;28;20156;-69
2021/04/29 09:55:04;;;;;;;35.60;22.85;;;;;;;10.85;68.20;100268.13;5066334;28;20083;-70
2021/04/29 09:57:30;;;;;;;33.50;22.98;;;;;;;10.81;68.21;100268.63;5051799;28;20044;-69
2021/04/29 10:00:01;;;;;;;36.42;23.23;;;;;;;10.78;68.63;100267.16;5061744;28;20059;-69
2021/04/29 10:02:28;;;;;;;34.22;23.17;;;;;;;10.82;68.67;100278.97;5057449;28;20052;-69
2021/04/29 10:04:55;;;;;;;37.15;21.95;;;;;;;10.83;69.38;100280.59;5058255;28;20234;-69
2021/04/29 10:07:22;;;;;;;30.25;21.67;;;;;;;10.71;68.34;100281.88;5062684;28;20051;-69
2021/04/29 10:09:49;;;;;;;37.15;24.02;;;;;;;10.60;68.83;100284.81;5060616;28;20053;-69
2021/04/29 10:12:18;;;;;;;36.63;24.50;;;;;;;10.58;68.88;100281.53;5065305;28;20109;-70
2021/04/29 10:14:49;;;;;;;35.80;24.63;;;;;;;10.60;69.59;100290.06;5050467;28;20503;-69
2021/04/29 10:17:17;;;;;;;39.70;24.08;;;;;;;10.60;70.78;100296.09;5063765;28;20090;-72
2021/04/29 10:19:46;;;;;;;37.25;24.38;;;;;;;10.63;70.17;100287.13;5060724;28;20477;-69
2021/04/29 10:22:13;;;;;;;37.20;22.25;;;;;;;10.62;70.36;100296.81;5044263;28;20048;-72
2021/04/29 10:24:44;;;;;;;38.78;22.27;;;;;;;10.44;69.41;100296.06;5060925;28;20653;-72
2021/04/29 10:27:12;;;;;;;35.88;23.65;;;;;;;10.32;69.89;100302.56;5055096;28;20076;-72
2021/04/29 10:29:39;;;;;;;38.33;21.30;;;;;;;10.27;70.60;100295.97;5057547;28;20173;-70
2021/04/29 10:32:11;;;;;;;32.28;22.45;;;;;;;10.46;72.02;100300.16;5055852;28;20091;-70
2021/04/29 10:34:47;;;;;;;27.92;20.23;;;;;;;10.51;70.87;100296.28;5063721;28;20059;-70
2021/04/29 10:37:17;;;;;;;32.92;21.10;;;;;;;10.47;70.61;100308.88;5056466;28;20053;-70
2021/04/29 10:40:02;;;;;;;30.88;20.67;;;;;;;10.55;70.40;100302.84;5051717;28;20503;-70
2021/04/29 10:42:30;;;;;;;33.63;21.80;;;;;;;10.47;71.15;100308.88;5027443;28;20071;-70
2021/04/29 10:44:59;;;;;;;31.90;22.45;;;;;;;10.40;71.05;100308.66;5052870;28;20141;-71
2021/04/29 10:47:30;;;;;;;;;;;;;;;10.47;71.75;100307.06;5064499;28;20402;-71
2021/04/29 10:50:14;;;;;;;31.75;21.42;;;;;;;10.55;71.19;100311.50;5058344;28;19924;-70
2021/04/29 10:52:50;;;;;;;32.47;21.85;;;;;;;10.47;71.07;100322.78;5063708;28;20130;-70
2021/04/29 10:55:27;;;;;;;28.70;20.13;;;;;;;10.53;71.33;100310.03;5054319;28;20078;-70
2021/04/29 10:57:55;;;;;;;34.53;22.48;;;;;;;10.52;71.48;100317.06;5058779;28;20082;-70
2021/04/29 11:00:21;;;;;;;31.65;20.02;;;;;;;10.47;71.27;100320.16;5061109;28;20048;-71
2021/04/29 11:03:27;;;;;;;34.40;21.40;;;;;;;10.47;71.46;100325.41;5059853;28;20117;-70
2021/04/29 11:06:25;;;;;;;39.03;22.25;;;;;;;10.26;72.07;100330.19;5048615;28;20133;-70
2021/04/29 11:08:54;;;;;;;30.35;21.23;;;;;;;10.27;72.79;100319.56;5049511;28;20052;-71
2021/04/29 11:11:33;;;;;;;27.33;18.20;;;;;;;10.03;72.91;100324.66;5035947;28;20080;-71
2021/04/29 11:14:13;;;;;;;26.45;18.48;;;;;;;9.89;74.46;100332.09;5061139;28;20106;-71
2021/04/29 11:16:57;;;;;;;27.08;19.10;;;;;;;10.04;74.69;100324.53;5038243;28;20116;-71
2021/04/29 11:19:42;;;;;;;26.83;18.52;;;;;;;10.14;74.83;100329.66;5063357;28;20052;-71
2021/04/29 11:22:10;;;;;;;24.38;15.70;;;;;;;10.13;75.37;100335.03;5060256;28;20097;-71
2021/04/29 11:24:42;;;;;;;25.20;17.27;;;;;;;10.11;75.96;100335.19;5047604;28;20048;-71
2021/04/29 11:27:20;;;;;;;19.90;14.60;;;;;;;10.16;74.88;100335.56;5069624;28;20079;-71
2021/04/29 11:29:46;;;;;;;20.38;15.68;;;;;;;10.17;75.00;100345.03;5056087;28;20040;-71
2021/04/29 11:32:12;;;;;;;19.65;15.10;;;;;;;10.12;74.02;100346.53;5060899;28;20075;-71
2021/04/29 11:34:44;;;;;;;21.98;15.65;;;;;;;10.06;74.11;100351.38;5059936;28;20110;-71
2021/04/29 11:37:11;;;;;;;19.20;14.88;;;;;;;10.08;74.89;100354.69;5065380;28;20080;-71
2021/04/29 11:39:38;;;;;;;22.23;17.38;;;;;;;10.06;74.62;100359.25;5059172;28;20113;-72
2021/04/29 11:42:05;;;;;;;19.00;14.35;;;;;;;9.96;73.58;100365.56;5068480;28;20508;-72
2021/04/29 11:44:31;;;;;;;22.52;16.85;;;;;;;9.85;73.83;100366.63;5050522;28;20182;-70
2021/04/29 11:46:59;;;;;;;21.48;15.40;;;;;;;9.89;74.80;100368.78;5058459;28;20130;-72
2021/04/29 11:49:37;;;;;;;20.48;15.57;;;;;;;9.94;75.31;100375.38;5042646;28;20680;-72
2021/04/29 11:52:04;;;;;;;21.27;14.82;;;;;;;9.90;75.10;100377.50;5053080;28;20114;-73
2021/04/29 11:54:30;;;;;;;23.95;15.68;;;;;;;9.93;75.00;100394.69;5060517;28;20500;-70
2021/04/29 11:57:00;;;;;;;19.98;14.40;;;;;;;9.87;73.99;100394.31;5055433;28;20191;-72
2021/04/29 11:59:32;;;;;;;20.80;15.57;;;;;;;9.92;74.59;100391.25;5042786;28;20052;-70
2021/04/29 12:02:01;;;;;;;25.00;18.40;;;;;;;9.98;74.95;100406.38;5063408;28;20056;-73
2021/04/29 12:04:28;;;;;;;21.67;15.40;;;;;;;10.01;75.49;100400.00;5063487;28;20368;-70
2021/04/29 12:07:00;;;;;;;19.10;12.60;;;;;;;9.72;73.23;100414.16;5060599;28;20057;-72
2021/04/29 12:09:28;;;;;;;19.90;14.32;;;;;;;9.69;73.69;100424.97;5061106;28;20052;-72
2021/04/29 12:12:18;;;;;;;20.33;13.98;;;;;;;9.72;73.02;100429.06;5066637;28;20064;-70
2021/04/29 12:14:53;;;;;;;20.95;15.00;;;;;;;9.56;73.24;100433.16;5061787;28;20075;-70
2021/04/29 12:17:21;;;;;;;21.30;14.40;;;;;;;9.56;74.01;100434.97;5067093;28;20080;-72
2021/04/29 12:19:49;;;;;;;21.77;13.93;;;;;;;9.56;74.44;100433.16;5040708;28;20048;-71
2021/04/29 12:22:21;;;;;;;18.38;13.95;;;;;;;9.52;73.85;100442.31;5061124;28;20052;-69
2021/04/29 12:24:48;;;;;;;18.88;13.07;;;;;;;9.42;73.67;100454.63;5062324;28;20060;-71
2021/04/29 12:27:22;;;;;;;20.30;12.98;;;;;;;9.29;73.72;100452.38;5066432;28;20067;-69
2021/04/29 12:30:07;;;;;;;19.02;11.88;;;;;;;9.19;73.29;100448.97;5065471;28;20056;-70
2021/04/29 12:32:34;;;;;;;18.08;12.20;;;;;;;9.12;73.48;100459.22;5054991;28;21175;-70
2021/04/29 12:35:01;;;;;;;16.23;11.87;;;;;;;9.05;73.48;100463.38;5063891;28;20086;-70
2021/04/29 12:37:27;;;;;;;16.77;11.80;;;;;;;9.06;74.04;100471.09;5057648;28;20053;-70
2021/04/29 12:39:53;;;;;;;18.75;13.05;;;;;;;9.03;73.47;100481.03;5071878;28;20842;-70
2021/04/29 12:42:21;;;;;;;19.95;13.77;;;;;;;8.94;73.15;100485.34;5059917;28;20469;-70
2021/04/29 12:44:50;;;;;;;21.80;13.07;;;;;;;8.78;72.25;100485.94;5066063;28;20045;-70
2021/04/29 12:47:22;;;;;;;;;;;;;;;8.67;72.14;100496.56;5061661;28;20084;-70
2021/04/29 12:49:59;;;;;;;18.25;11.43;;;;;;;8.54;72.68;100504.72;5057324;28;19930;-70
2021/04/29 12:52:26;;;;;;;19.15;11.75;;;;;;;8.49;72.75;100502.53;5063962;28;20074;-69
2021/04/29 12:54:53;;;;;;;18.58;11.55;;;;;;;8.46;72.55;100508.03;5060239;28;20049;-71
2021/04/29 12:57:29;;;;;;;18.77;12.00;;;;;;;8.62;72.34;100511.84;5064850;28;20056;-70
2021/04/29 12:59:56;;;;;;;19.88;13.15;;;;;;;8.67;72.35;100517.50;5059930;28;20512;-70
2021/04/29 13:02:24;;;;;;;17.00;11.98;;;;;;;8.51;71.42;100518.06;5058538;28;20480;-70